sensor_id;sensor_type;location;lat;lon;timestamp;P1;durP1;ratioP1;P2;durP2;ratioP2
13102;SDS011;52970;46.752;17.108;2023-02-28T00:00:30;8.77;;;7.73;;
13102;SDS011;52970;46.752;17.108;2023-02-28T00:02:56;11.27;;;8.73;;
13102;SDS011;52970;46.752;17.108;2023-02-28T00:05:22;10.93;;;8.80;;
13102;SDS011;52970;46.752;17.108;2023-02-28T00:07:48;12.63;;;8.80;;
13102;SDS011;52970;46.752;17.108;2023-02-28T00:10:15;12.10;;;8.57;;
13102;SDS011;52970;46.752;17.108;2023-02-28T00:12:44;10.60;;;7.93;;
13102;SDS011;52970;46.752;17.108;2023-02-28T00:15:10;9.30;;;8.10;;
13102;SDS011;52970;46.752;17.108;2023-02-28T00:17:36;15.33;;;9.27;;
13102;SDS011;52970;46.752;17.108;2023-02-28T00:20:01;12.40;;;8.20;;
13102;SDS011;52970;46.752;17.108;2023-02-28T00:22:37;19.47;;;11.63;;
13102;SDS011;52970;46.752;17.108;2023-02-28T00:25:03;12.70;;;9.27;;
13102;SDS011;52970;46.752;17.108;2023-02-28T00:27:28;21.93;;;12.50;;
13102;SDS011;52970;46.752;17.108;2023-02-28T00:29:54;11.33;;;9.07;;
13102;SDS011;52970;46.752;17.108;2023-02-28T00:32:19;15.57;;;9.63;;
13102;SDS011;52970;46.752;17.108;2023-02-28T00:34:44;24.00;;;12.43;;
13102;SDS011;52970;46.752;17.108;2023-02-28T00:37:10;80.97;;;23.50;;
13102;SDS011;52970;46.752;17.108;2023-02-28T00:39:37;49.67;;;17.77;;
13102;SDS011;52970;46.752;17.108;2023-02-28T00:42:03;169.77;;;46.50;;
13102;SDS011;52970;46.752;17.108;2023-02-28T00:44:28;81.93;;;26.60;;
13102;SDS011;52970;46.752;17.108;2023-02-28T00:46:54;282.30;;;70.20;;
13102;SDS011;52970;46.752;17.108;2023-02-28T00:49:20;245.37;;;64.97;;
13102;SDS011;52970;46.752;17.108;2023-02-28T00:51:46;85.03;;;27.03;;
13102;SDS011;52970;46.752;17.108;2023-02-28T00:54:11;94.97;;;27.73;;
13102;SDS011;52970;46.752;17.108;2023-02-28T00:56:36;58.10;;;19.70;;
13102;SDS011;52970;46.752;17.108;2023-02-28T00:59:02;32.00;;;14.90;;
13102;SDS011;52970;46.752;17.108;2023-02-28T01:01:27;15.17;;;9.90;;
13102;SDS011;52970;46.752;17.108;2023-02-28T01:03:52;25.73;;;13.73;;
13102;SDS011;52970;46.752;17.108;2023-02-28T01:06:19;26.13;;;13.20;;
13102;SDS011;52970;46.752;17.108;2023-02-28T01:08:44;33.87;;;16.13;;
13102;SDS011;52970;46.752;17.108;2023-02-28T01:11:10;27.33;;;15.40;;
13102;SDS011;52970;46.752;17.108;2023-02-28T01:13:36;154.57;;;62.33;;
13102;SDS011;52970;46.752;17.108;2023-02-28T01:16:01;34.60;;;17.50;;
13102;SDS011;52970;46.752;17.108;2023-02-28T01:18:26;13.83;;;10.53;;
13102;SDS011;52970;46.752;17.108;2023-02-28T01:20:52;69.10;;;30.20;;
13102;SDS011;52970;46.752;17.108;2023-02-28T01:23:18;54.70;;;24.43;;
13102;SDS011;52970;46.752;17.108;2023-02-28T01:25:43;25.87;;;13.93;;
13102;SDS011;52970;46.752;17.108;2023-02-28T01:28:09;26.43;;;14.00;;
13102;SDS011;52970;46.752;17.108;2023-02-28T01:30:34;38.70;;;19.23;;
13102;SDS011;52970;46.752;17.108;2023-02-28T01:32:59;192.03;;;77.17;;
13102;SDS011;52970;46.752;17.108;2023-02-28T01:35:24;79.13;;;36.43;;
13102;SDS011;52970;46.752;17.108;2023-02-28T01:37:50;110.00;;;48.77;;
13102;SDS011;52970;46.752;17.108;2023-02-28T01:40:15;59.37;;;30.13;;
13102;SDS011;52970;46.752;17.108;2023-02-28T01:42:41;61.67;;;30.23;;
13102;SDS011;52970;46.752;17.108;2023-02-28T01:45:14;13.13;;;9.53;;
13102;SDS011;52970;46.752;17.108;2023-02-28T01:47:41;38.83;;;19.73;;
13102;SDS011;52970;46.752;17.108;2023-02-28T01:50:09;20.83;;;12.80;;
13102;SDS011;52970;46.752;17.108;2023-02-28T01:52:37;43.27;;;20.40;;
13102;SDS011;52970;46.752;17.108;2023-02-28T01:55:02;57.10;;;25.30;;
13102;SDS011;52970;46.752;17.108;2023-02-28T01:57:34;168.27;;;60.27;;
13102;SDS011;52970;46.752;17.108;2023-02-28T02:00:10;153.23;;;63.57;;
13102;SDS011;52970;46.752;17.108;2023-02-28T02:02:38;72.27;;;33.93;;
13102;SDS011;52970;46.752;17.108;2023-02-28T02:05:08;74.63;;;33.23;;
13102;SDS011;52970;46.752;17.108;2023-02-28T02:07:37;89.63;;;36.97;;
13102;SDS011;52970;46.752;17.108;2023-02-28T02:13:13;44.30;;;23.07;;
13102;SDS011;52970;46.752;17.108;2023-02-28T02:15:29;52.23;;;25.03;;
13102;SDS011;52970;46.752;17.108;2023-02-28T02:17:57;18.57;;;12.63;;
13102;SDS011;52970;46.752;17.108;2023-02-28T02:20:38;16.27;;;11.87;;
13102;SDS011;52970;46.752;17.108;2023-02-28T02:25:42;40.17;;;19.97;;
13102;SDS011;52970;46.752;17.108;2023-02-28T02:38:38;15.47;;;10.53;;
13102;SDS011;52970;46.752;17.108;2023-02-28T02:43:53;16.13;;;11.17;;
13102;SDS011;52970;46.752;17.108;2023-02-28T02:46:26;13.23;;;10.30;;
13102;SDS011;52970;46.752;17.108;2023-02-28T02:48:54;13.10;;;10.30;;
13102;SDS011;52970;46.752;17.108;2023-02-28T02:51:20;14.63;;;10.30;;
13102;SDS011;52970;46.752;17.108;2023-02-28T02:53:48;12.57;;;10.30;;
13102;SDS011;52970;46.752;17.108;2023-02-28T02:56:15;15.00;;;10.77;;
13102;SDS011;52970;46.752;17.108;2023-02-28T02:58:43;14.07;;;10.70;;
13102;SDS011;52970;46.752;17.108;2023-02-28T03:01:14;12.13;;;9.73;;
13102;SDS011;52970;46.752;17.108;2023-02-28T03:03:40;20.00;;;11.13;;
13102;SDS011;52970;46.752;17.108;2023-02-28T03:06:06;13.77;;;10.53;;
13102;SDS011;52970;46.752;17.108;2023-02-28T03:08:35;13.30;;;9.40;;
13102;SDS011;52970;46.752;17.108;2023-02-28T03:11:02;15.20;;;11.17;;
13102;SDS011;52970;46.752;17.108;2023-02-28T03:16:19;14.23;;;11.20;;
13102;SDS011;52970;46.752;17.108;2023-02-28T03:19:03;17.20;;;11.27;;
13102;SDS011;52970;46.752;17.108;2023-02-28T03:24:07;13.80;;;10.53;;
13102;SDS011;52970;46.752;17.108;2023-02-28T03:26:34;15.90;;;12.10;;
13102;SDS011;52970;46.752;17.108;2023-02-28T03:29:15;13.57;;;11.20;;
13102;SDS011;52970;46.752;17.108;2023-02-28T03:36:47;16.13;;;12.33;;
13102;SDS011;52970;46.752;17.108;2023-02-28T03:39:47;25.30;;;15.00;;
13102;SDS011;52970;46.752;17.108;2023-02-28T03:42:12;121.87;;;39.40;;
13102;SDS011;52970;46.752;17.108;2023-02-28T03:44:42;55.33;;;25.67;;
13102;SDS011;52970;46.752;17.108;2023-02-28T03:47:13;26.37;;;15.67;;
13102;SDS011;52970;46.752;17.108;2023-02-28T03:49:45;44.17;;;19.63;;
13102;SDS011;52970;46.752;17.108;2023-02-28T03:52:12;113.10;;;36.97;;
13102;SDS011;52970;46.752;17.108;2023-02-28T03:54:47;102.60;;;32.23;;
13102;SDS011;52970;46.752;17.108;2023-02-28T03:59:45;68.67;;;28.63;;
13102;SDS011;52970;46.752;17.108;2023-02-28T04:02:13;103.80;;;36.30;;
13102;SDS011;52970;46.752;17.108;2023-02-28T04:04:38;64.37;;;29.90;;
13102;SDS011;52970;46.752;17.108;2023-02-28T04:07:07;108.93;;;41.27;;
13102;SDS011;52970;46.752;17.108;2023-02-28T04:09:32;85.20;;;35.13;;
13102;SDS011;52970;46.752;17.108;2023-02-28T04:11:58;123.20;;;50.70;;
13102;SDS011;52970;46.752;17.108;2023-02-28T04:14:23;135.90;;;56.40;;
13102;SDS011;52970;46.752;17.108;2023-02-28T04:16:48;22.30;;;16.43;;
13102;SDS011;52970;46.752;17.108;2023-02-28T04:19:15;53.93;;;30.27;;
13102;SDS011;52970;46.752;17.108;2023-02-28T04:21:42;27.93;;;18.73;;
13102;SDS011;52970;46.752;17.108;2023-02-28T04:24:09;29.57;;;18.40;;
13102;SDS011;52970;46.752;17.108;2023-02-28T04:26:39;16.20;;;12.63;;
13102;SDS011;52970;46.752;17.108;2023-02-28T04:29:05;20.73;;;14.43;;
13102;SDS011;52970;46.752;17.108;2023-02-28T04:31:30;24.97;;;14.87;;
13102;SDS011;52970;46.752;17.108;2023-02-28T04:33:56;23.00;;;14.77;;
13102;SDS011;52970;46.752;17.108;2023-02-28T04:36:21;19.33;;;13.90;;
13102;SDS011;52970;46.752;17.108;2023-02-28T04:38:48;23.47;;;15.00;;
13102;SDS011;52970;46.752;17.108;2023-02-28T04:41:14;18.03;;;13.00;;
13102;SDS011;52970;46.752;17.108;2023-02-28T04:43:39;17.63;;;12.93;;
13102;SDS011;52970;46.752;17.108;2023-02-28T04:46:05;17.30;;;12.87;;
13102;SDS011;52970;46.752;17.108;2023-02-28T04:48:31;14.57;;;11.40;;
13102;SDS011;52970;46.752;17.108;2023-02-28T04:51:01;17.53;;;11.30;;
13102;SDS011;52970;46.752;17.108;2023-02-28T04:53:26;14.63;;;11.47;;
13102;SDS011;52970;46.752;17.108;2023-02-28T04:55:52;17.67;;;11.77;;
13102;SDS011;52970;46.752;17.108;2023-02-28T04:58:18;13.47;;;11.60;;
13102;SDS011;52970;46.752;17.108;2023-02-28T05:00:43;15.80;;;11.63;;
13102;SDS011;52970;46.752;17.108;2023-02-28T05:03:08;13.37;;;10.03;;
13102;SDS011;52970;46.752;17.108;2023-02-28T05:05:34;14.57;;;10.47;;
13102;SDS011;52970;46.752;17.108;2023-02-28T05:08:00;14.07;;;10.20;;
13102;SDS011;52970;46.752;17.108;2023-02-28T05:10:25;16.40;;;10.83;;
13102;SDS011;52970;46.752;17.108;2023-02-28T05:12:50;14.13;;;10.13;;
13102;SDS011;52970;46.752;17.108;2023-02-28T05:15:16;11.47;;;9.43;;
13102;SDS011;52970;46.752;17.108;2023-02-28T05:17:41;13.20;;;9.63;;
13102;SDS011;52970;46.752;17.108;2023-02-28T05:20:08;11.73;;;9.47;;
13102;SDS011;52970;46.752;17.108;2023-02-28T05:22:36;13.83;;;9.50;;
13102;SDS011;52970;46.752;17.108;2023-02-28T05:25:02;12.30;;;9.87;;
13102;SDS011;52970;46.752;17.108;2023-02-28T05:27:28;13.60;;;10.20;;
13102;SDS011;52970;46.752;17.108;2023-02-28T05:29:53;11.13;;;9.30;;
13102;SDS011;52970;46.752;17.108;2023-02-28T05:32:18;13.53;;;10.03;;
13102;SDS011;52970;46.752;17.108;2023-02-28T05:34:44;12.83;;;9.27;;
13102;SDS011;52970;46.752;17.108;2023-02-28T05:37:11;13.83;;;9.37;;
13102;SDS011;52970;46.752;17.108;2023-02-28T05:39:36;10.93;;;9.47;;
13102;SDS011;52970;46.752;17.108;2023-02-28T05:42:02;13.70;;;9.03;;
13102;SDS011;52970;46.752;17.108;2023-02-28T05:44:27;11.50;;;9.67;;
13102;SDS011;52970;46.752;17.108;2023-02-28T05:46:52;11.50;;;9.10;;
13102;SDS011;52970;46.752;17.108;2023-02-28T05:49:17;14.13;;;9.70;;
13102;SDS011;52970;46.752;17.108;2023-02-28T05:51:42;14.77;;;9.13;;
13102;SDS011;52970;46.752;17.108;2023-02-28T05:54:08;10.50;;;8.83;;
13102;SDS011;52970;46.752;17.108;2023-02-28T05:56:33;12.63;;;10.03;;
13102;SDS011;52970;46.752;17.108;2023-02-28T05:59:04;12.47;;;8.83;;
13102;SDS011;52970;46.752;17.108;2023-02-28T06:01:39;12.80;;;9.67;;
13102;SDS011;52970;46.752;17.108;2023-02-28T06:04:05;13.23;;;9.47;;
13102;SDS011;52970;46.752;17.108;2023-02-28T06:06:31;10.97;;;9.40;;
13102;SDS011;52970;46.752;17.108;2023-02-28T06:08:59;9.53;;;7.70;;
13102;SDS011;52970;46.752;17.108;2023-02-28T06:11:24;10.57;;;8.33;;
13102;SDS011;52970;46.752;17.108;2023-02-28T06:14:01;12.10;;;9.43;;
13102;SDS011;52970;46.752;17.108;2023-02-28T06:16:27;10.43;;;7.90;;
13102;SDS011;52970;46.752;17.108;2023-02-28T06:18:53;10.17;;;7.63;;
13102;SDS011;52970;46.752;17.108;2023-02-28T06:21:20;9.13;;;7.47;;
13102;SDS011;52970;46.752;17.108;2023-02-28T06:23:45;8.73;;;7.37;;
13102;SDS011;52970;46.752;17.108;2023-02-28T06:26:11;9.63;;;8.00;;
13102;SDS011;52970;46.752;17.108;2023-02-28T06:28:36;9.53;;;7.33;;
13102;SDS011;52970;46.752;17.108;2023-02-28T06:31:08;11.57;;;8.07;;
13102;SDS011;52970;46.752;17.108;2023-02-28T06:33:34;10.37;;;8.37;;
13102;SDS011;52970;46.752;17.108;2023-02-28T06:36:00;10.50;;;8.07;;
13102;SDS011;52970;46.752;17.108;2023-02-28T06:38:25;9.80;;;8.13;;
13102;SDS011;52970;46.752;17.108;2023-02-28T06:40:52;8.90;;;7.97;;
13102;SDS011;52970;46.752;17.108;2023-02-28T06:43:18;12.43;;;8.07;;
13102;SDS011;52970;46.752;17.108;2023-02-28T06:45:43;9.80;;;7.83;;
13102;SDS011;52970;46.752;17.108;2023-02-28T06:48:08;9.17;;;8.27;;
13102;SDS011;52970;46.752;17.108;2023-02-28T06:50:34;9.13;;;7.90;;
13102;SDS011;52970;46.752;17.108;2023-02-28T06:52:59;10.50;;;7.93;;
13102;SDS011;52970;46.752;17.108;2023-02-28T06:55:24;10.70;;;7.67;;
13102;SDS011;52970;46.752;17.108;2023-02-28T06:57:49;11.63;;;8.47;;
13102;SDS011;52970;46.752;17.108;2023-02-28T07:00:15;11.93;;;8.10;;
13102;SDS011;52970;46.752;17.108;2023-02-28T07:02:41;9.97;;;7.40;;
13102;SDS011;52970;46.752;17.108;2023-02-28T07:05:07;9.00;;;7.77;;
13102;SDS011;52970;46.752;17.108;2023-02-28T07:07:33;10.80;;;8.17;;
13102;SDS011;52970;46.752;17.108;2023-02-28T07:09:59;10.07;;;7.90;;
13102;SDS011;52970;46.752;17.108;2023-02-28T07:12:24;9.63;;;7.17;;
13102;SDS011;52970;46.752;17.108;2023-02-28T07:14:49;10.90;;;8.33;;
13102;SDS011;52970;46.752;17.108;2023-02-28T07:17:15;11.43;;;8.03;;
13102;SDS011;52970;46.752;17.108;2023-02-28T07:19:40;9.50;;;7.87;;
13102;SDS011;52970;46.752;17.108;2023-02-28T07:22:06;8.67;;;7.23;;
13102;SDS011;52970;46.752;17.108;2023-02-28T07:24:31;8.80;;;7.57;;
13102;SDS011;52970;46.752;17.108;2023-02-28T07:26:57;8.43;;;7.27;;
13102;SDS011;52970;46.752;17.108;2023-02-28T07:29:22;11.43;;;7.83;;
13102;SDS011;52970;46.752;17.108;2023-02-28T07:31:47;8.80;;;7.37;;
13102;SDS011;52970;46.752;17.108;2023-02-28T07:34:13;7.63;;;6.80;;
13102;SDS011;52970;46.752;17.108;2023-02-28T07:36:38;8.20;;;6.63;;
13102;SDS011;52970;46.752;17.108;2023-02-28T07:39:04;9.17;;;6.73;;
13102;SDS011;52970;46.752;17.108;2023-02-28T07:41:29;9.47;;;6.40;;
13102;SDS011;52970;46.752;17.108;2023-02-28T07:43:57;7.73;;;6.80;;
13102;SDS011;52970;46.752;17.108;2023-02-28T07:46:24;10.23;;;6.90;;
13102;SDS011;52970;46.752;17.108;2023-02-28T07:48:49;8.23;;;7.13;;
13102;SDS011;52970;46.752;17.108;2023-02-28T07:51:15;7.87;;;6.53;;
13102;SDS011;52970;46.752;17.108;2023-02-28T07:53:40;8.20;;;6.60;;
13102;SDS011;52970;46.752;17.108;2023-02-28T07:56:05;7.93;;;6.40;;
13102;SDS011;52970;46.752;17.108;2023-02-28T07:58:31;8.73;;;6.83;;
13102;SDS011;52970;46.752;17.108;2023-02-28T08:00:56;7.37;;;6.50;;
13102;SDS011;52970;46.752;17.108;2023-02-28T08:03:22;8.13;;;5.90;;
13102;SDS011;52970;46.752;17.108;2023-02-28T08:05:48;8.13;;;6.10;;
13102;SDS011;52970;46.752;17.108;2023-02-28T08:08:14;6.93;;;6.23;;
13102;SDS011;52970;46.752;17.108;2023-02-28T08:10:40;7.97;;;6.77;;
13102;SDS011;52970;46.752;17.108;2023-02-28T08:13:05;6.70;;;5.80;;
13102;SDS011;52970;46.752;17.108;2023-02-28T08:15:31;6.47;;;5.80;;
13102;SDS011;52970;46.752;17.108;2023-02-28T08:17:56;6.27;;;5.63;;
13102;SDS011;52970;46.752;17.108;2023-02-28T08:20:23;7.63;;;6.37;;
13102;SDS011;52970;46.752;17.108;2023-02-28T08:22:48;7.30;;;6.03;;
13102;SDS011;52970;46.752;17.108;2023-02-28T08:25:13;5.93;;;5.40;;
13102;SDS011;52970;46.752;17.108;2023-02-28T08:27:39;7.50;;;5.87;;
13102;SDS011;52970;46.752;17.108;2023-02-28T08:30:04;6.03;;;5.13;;
13102;SDS011;52970;46.752;17.108;2023-02-28T08:32:30;6.10;;;5.50;;
13102;SDS011;52970;46.752;17.108;2023-02-28T08:34:56;7.83;;;5.57;;
13102;SDS011;52970;46.752;17.108;2023-02-28T08:37:22;6.07;;;5.30;;
13102;SDS011;52970;46.752;17.108;2023-02-28T08:39:47;6.77;;;5.70;;
13102;SDS011;52970;46.752;17.108;2023-02-28T08:42:12;7.53;;;5.53;;
13102;SDS011;52970;46.752;17.108;2023-02-28T08:44:37;7.00;;;5.67;;
13102;SDS011;52970;46.752;17.108;2023-02-28T08:47:03;8.20;;;5.70;;
13102;SDS011;52970;46.752;17.108;2023-02-28T08:49:28;7.63;;;5.63;;
13102;SDS011;52970;46.752;17.108;2023-02-28T08:51:53;8.10;;;5.33;;
13102;SDS011;52970;46.752;17.108;2023-02-28T08:54:20;7.23;;;5.20;;
13102;SDS011;52970;46.752;17.108;2023-02-28T08:56:46;6.13;;;5.27;;
13102;SDS011;52970;46.752;17.108;2023-02-28T08:59:12;6.27;;;5.67;;
13102;SDS011;52970;46.752;17.108;2023-02-28T09:01:37;6.03;;;5.40;;
13102;SDS011;52970;46.752;17.108;2023-02-28T09:04:03;6.53;;;5.63;;
13102;SDS011;52970;46.752;17.108;2023-02-28T09:06:28;6.37;;;5.47;;
13102;SDS011;52970;46.752;17.108;2023-02-28T09:08:57;8.77;;;5.57;;
13102;SDS011;52970;46.752;17.108;2023-02-28T09:11:23;7.27;;;5.30;;
13102;SDS011;52970;46.752;17.108;2023-02-28T09:13:49;5.50;;;5.00;;
13102;SDS011;52970;46.752;17.108;2023-02-28T09:16:14;6.57;;;5.40;;
13102;SDS011;52970;46.752;17.108;2023-02-28T09:18:41;5.90;;;5.30;;
13102;SDS011;52970;46.752;17.108;2023-02-28T09:21:06;6.57;;;5.43;;
13102;SDS011;52970;46.752;17.108;2023-02-28T09:23:32;5.90;;;5.30;;
13102;SDS011;52970;46.752;17.108;2023-02-28T09:25:57;6.13;;;5.30;;
13102;SDS011;52970;46.752;17.108;2023-02-28T09:28:23;7.23;;;5.53;;
13102;SDS011;52970;46.752;17.108;2023-02-28T09:30:50;6.10;;;5.37;;
13102;SDS011;52970;46.752;17.108;2023-02-28T09:33:16;7.27;;;6.03;;
13102;SDS011;52970;46.752;17.108;2023-02-28T09:35:41;8.00;;;5.40;;
13102;SDS011;52970;46.752;17.108;2023-02-28T09:38:08;7.93;;;5.43;;
13102;SDS011;52970;46.752;17.108;2023-02-28T09:40:35;8.20;;;5.57;;
13102;SDS011;52970;46.752;17.108;2023-02-28T09:43:01;6.77;;;5.53;;
13102;SDS011;52970;46.752;17.108;2023-02-28T09:45:31;5.77;;;5.17;;
13102;SDS011;52970;46.752;17.108;2023-02-28T09:47:59;5.57;;;4.90;;
13102;SDS011;52970;46.752;17.108;2023-02-28T09:50:36;6.30;;;5.70;;
13102;SDS011;52970;46.752;17.108;2023-02-28T09:53:05;6.40;;;5.43;;
13102;SDS011;52970;46.752;17.108;2023-02-28T09:55:38;7.13;;;6.43;;
13102;SDS011;52970;46.752;17.108;2023-02-28T09:58:05;6.67;;;5.80;;
13102;SDS011;52970;46.752;17.108;2023-02-28T10:00:39;6.00;;;5.33;;
13102;SDS011;52970;46.752;17.108;2023-02-28T10:05:38;6.73;;;5.60;;
13102;SDS011;52970;46.752;17.108;2023-02-28T10:08:10;7.53;;;5.60;;
13102;SDS011;52970;46.752;17.108;2023-02-28T10:10:40;7.38;;;5.97;;
13102;SDS011;52970;46.752;17.108;2023-02-28T10:13:11;7.03;;;6.27;;
13102;SDS011;52970;46.752;17.108;2023-02-28T10:15:38;7.22;;;5.80;;
13102;SDS011;52970;46.752;17.108;2023-02-28T10:18:04;7.85;;;6.40;;
13102;SDS011;52970;46.752;17.108;2023-02-28T10:20:30;7.32;;;6.53;;
13102;SDS011;52970;46.752;17.108;2023-02-28T10:25:25;7.40;;;6.43;;
13102;SDS011;52970;46.752;17.108;2023-02-28T10:27:54;8.30;;;6.00;;
13102;SDS011;52970;46.752;17.108;2023-02-28T10:30:21;7.63;;;6.07;;
13102;SDS011;52970;46.752;17.108;2023-02-28T10:32:50;7.85;;;6.43;;
13102;SDS011;52970;46.752;17.108;2023-02-28T10:35:22;7.18;;;6.45;;
13102;SDS011;52970;46.752;17.108;2023-02-28T10:37:48;7.80;;;7.00;;
13102;SDS011;52970;46.752;17.108;2023-02-28T10:42:42;7.40;;;6.60;;
13102;SDS011;52970;46.752;17.108;2023-02-28T10:45:19;10.00;;;6.88;;
13102;SDS011;52970;46.752;17.108;2023-02-28T10:47:52;8.43;;;6.93;;
13102;SDS011;52970;46.752;17.108;2023-02-28T10:52:52;8.65;;;6.72;;
13102;SDS011;52970;46.752;17.108;2023-02-28T10:55:22;8.73;;;7.10;;
13102;SDS011;52970;46.752;17.108;2023-02-28T10:57:48;10.15;;;7.50;;
13102;SDS011;52970;46.752;17.108;2023-02-28T11:02:39;6.53;;;5.70;;
13102;SDS011;52970;46.752;17.108;2023-02-28T11:07:53;8.95;;;7.15;;
13102;SDS011;52970;46.752;17.108;2023-02-28T11:10:19;8.63;;;7.18;;
13102;SDS011;52970;46.752;17.108;2023-02-28T11:12:45;8.00;;;7.03;;
13102;SDS011;52970;46.752;17.108;2023-02-28T11:17:45;7.78;;;6.65;;
13102;SDS011;52970;46.752;17.108;2023-02-28T11:20:20;7.07;;;6.25;;
13102;SDS011;52970;46.752;17.108;2023-02-28T11:22:48;6.90;;;5.65;;
13102;SDS011;52970;46.752;17.108;2023-02-28T11:27:49;7.90;;;7.05;;
13102;SDS011;52970;46.752;17.108;2023-02-28T11:32:55;8.18;;;7.30;;
13102;SDS011;52970;46.752;17.108;2023-02-28T11:35:26;42.88;;;20.98;;
13102;SDS011;52970;46.752;17.108;2023-02-28T11:37:52;41.05;;;20.90;;
13102;SDS011;52970;46.752;17.108;2023-02-28T11:40:18;21.42;;;12.80;;
13102;SDS011;52970;46.752;17.108;2023-02-28T11:42:50;12.27;;;8.57;;
13102;SDS011;52970;46.752;17.108;2023-02-28T11:45:37;11.10;;;7.57;;
13102;SDS011;52970;46.752;17.108;2023-02-28T11:48:19;9.05;;;7.05;;
13102;SDS011;52970;46.752;17.108;2023-02-28T11:50:52;16.88;;;13.30;;
13102;SDS011;52970;46.752;17.108;2023-02-28T11:56:58;8.68;;;7.78;;
13102;SDS011;52970;46.752;17.108;2023-02-28T11:59:09;9.23;;;7.25;;
13102;SDS011;52970;46.752;17.108;2023-02-28T12:04:13;9.07;;;7.32;;
13102;SDS011;52970;46.752;17.108;2023-02-28T12:06:45;8.98;;;7.75;;
13102;SDS011;52970;46.752;17.108;2023-02-28T12:09:28;12.02;;;9.35;;
13102;SDS011;52970;46.752;17.108;2023-02-28T12:17:22;8.30;;;6.82;;
13102;SDS011;52970;46.752;17.108;2023-02-28T12:27:37;8.70;;;7.80;;
13102;SDS011;52970;46.752;17.108;2023-02-28T12:33:00;9.38;;;7.20;;
13102;SDS011;52970;46.752;17.108;2023-02-28T12:35:32;7.90;;;7.10;;
13102;SDS011;52970;46.752;17.108;2023-02-28T12:38:06;8.02;;;7.22;;
13102;SDS011;52970;46.752;17.108;2023-02-28T12:43:06;9.10;;;7.45;;
13102;SDS011;52970;46.752;17.108;2023-02-28T12:48:08;8.38;;;7.07;;
13102;SDS011;52970;46.752;17.108;2023-02-28T12:50:35;7.28;;;6.53;;
13102;SDS011;52970;46.752;17.108;2023-02-28T12:53:06;8.05;;;7.20;;
13102;SDS011;52970;46.752;17.108;2023-02-28T12:55:38;8.20;;;6.95;;
13102;SDS011;52970;46.752;17.108;2023-02-28T13:00:38;8.77;;;6.88;;
13102;SDS011;52970;46.752;17.108;2023-02-28T13:10:49;8.38;;;6.60;;
13102;SDS011;52970;46.752;17.108;2023-02-28T13:13:23;6.50;;;5.90;;
13102;SDS011;52970;46.752;17.108;2023-02-28T13:18:31;6.88;;;6.18;;
13102;SDS011;52970;46.752;17.108;2023-02-28T13:20:56;8.45;;;6.57;;
13102;SDS011;52970;46.752;17.108;2023-02-28T13:23:39;7.07;;;6.38;;
13102;SDS011;52970;46.752;17.108;2023-02-28T13:26:05;9.48;;;6.93;;
13102;SDS011;52970;46.752;17.108;2023-02-28T13:29:03;8.63;;;6.97;;
13102;SDS011;52970;46.752;17.108;2023-02-28T13:31:22;7.03;;;6.32;;
13102;SDS011;52970;46.752;17.108;2023-02-28T13:47:23;7.57;;;6.82;;
13102;SDS011;52970;46.752;17.108;2023-02-28T13:54:21;8.30;;;6.97;;
13102;SDS011;52970;46.752;17.108;2023-02-28T13:57:33;8.07;;;7.20;;
13102;SDS011;52970;46.752;17.108;2023-02-28T14:02:20;7.50;;;6.53;;
13102;SDS011;52970;46.752;17.108;2023-02-28T14:07:44;7.32;;;6.63;;
13102;SDS011;52970;46.752;17.108;2023-02-28T14:10:15;8.25;;;7.32;;
13102;SDS011;52970;46.752;17.108;2023-02-28T14:12:52;7.75;;;6.60;;
13102;SDS011;52970;46.752;17.108;2023-02-28T14:17:58;7.85;;;6.93;;
13102;SDS011;52970;46.752;17.108;2023-02-28T14:20:26;8.57;;;7.18;;
13102;SDS011;52970;46.752;17.108;2023-02-28T14:23:02;7.72;;;6.72;;
13102;SDS011;52970;46.752;17.108;2023-02-28T14:31:41;8.20;;;7.07;;
13102;SDS011;52970;46.752;17.108;2023-02-28T14:34:51;7.32;;;6.57;;
13102;SDS011;52970;46.752;17.108;2023-02-28T14:36:57;8.75;;;7.35;;
13102;SDS011;52970;46.752;17.108;2023-02-28T14:39:24;8.35;;;6.50;;
13102;SDS011;52970;46.752;17.108;2023-02-28T14:41:50;8.60;;;7.03;;
13102;SDS011;52970;46.752;17.108;2023-02-28T14:46:41;9.82;;;8.07;;
13102;SDS011;52970;46.752;17.108;2023-02-28T14:49:12;10.13;;;7.75;;
13102;SDS011;52970;46.752;17.108;2023-02-28T14:51:38;8.02;;;7.22;;
13102;SDS011;52970;46.752;17.108;2023-02-28T14:54:03;8.23;;;7.15;;
13102;SDS011;52970;46.752;17.108;2023-02-28T14:56:34;9.50;;;7.72;;
13102;SDS011;52970;46.752;17.108;2023-02-28T14:59:00;8.20;;;6.90;;
13102;SDS011;52970;46.752;17.108;2023-02-28T15:01:26;9.10;;;7.22;;
13102;SDS011;52970;46.752;17.108;2023-02-28T15:04:05;7.78;;;6.60;;
13102;SDS011;52970;46.752;17.108;2023-02-28T15:06:31;9.52;;;7.90;;
13102;SDS011;52970;46.752;17.108;2023-02-28T15:09:16;9.63;;;7.50;;
13102;SDS011;52970;46.752;17.108;2023-02-28T15:11:42;9.40;;;7.90;;
13102;SDS011;52970;46.752;17.108;2023-02-28T15:14:13;9.52;;;7.75;;
13102;SDS011;52970;46.752;17.108;2023-02-28T15:16:41;10.55;;;7.53;;
13102;SDS011;52970;46.752;17.108;2023-02-28T15:19:12;9.13;;;8.05;;
13102;SDS011;52970;46.752;17.108;2023-02-28T15:21:39;10.82;;;8.32;;
13102;SDS011;52970;46.752;17.108;2023-02-28T15:26:39;8.90;;;7.97;;
13102;SDS011;52970;46.752;17.108;2023-02-28T15:29:13;9.95;;;8.35;;
13102;SDS011;52970;46.752;17.108;2023-02-28T15:31:44;9.88;;;8.27;;
13102;SDS011;52970;46.752;17.108;2023-02-28T15:34:20;9.65;;;8.52;;
13102;SDS011;52970;46.752;17.108;2023-02-28T15:36:46;9.05;;;8.00;;
13102;SDS011;52970;46.752;17.108;2023-02-28T15:39:19;12.23;;;8.40;;
13102;SDS011;52970;46.752;17.108;2023-02-28T15:41:44;10.65;;;8.45;;
13102;SDS011;52970;46.752;17.108;2023-02-28T15:44:28;11.63;;;8.40;;
13102;SDS011;52970;46.752;17.108;2023-02-28T15:47:00;9.20;;;7.90;;
13102;SDS011;52970;46.752;17.108;2023-02-28T15:49:26;11.02;;;8.05;;
13102;SDS011;52970;46.752;17.108;2023-02-28T15:51:53;10.98;;;8.75;;
13102;SDS011;52970;46.752;17.108;2023-02-28T15:54:24;11.32;;;8.10;;
13102;SDS011;52970;46.752;17.108;2023-02-28T15:56:51;8.68;;;7.78;;
13102;SDS011;52970;46.752;17.108;2023-02-28T15:59:21;10.35;;;7.82;;
13102;SDS011;52970;46.752;17.108;2023-02-28T16:02:01;9.68;;;8.07;;
13102;SDS011;52970;46.752;17.108;2023-02-28T16:04:27;9.98;;;8.90;;
13102;SDS011;52970;46.752;17.108;2023-02-28T16:09:25;10.35;;;9.05;;
13102;SDS011;52970;46.752;17.108;2023-02-28T16:11:52;9.32;;;8.43;;
13102;SDS011;52970;46.752;17.108;2023-02-28T16:14:19;11.55;;;8.23;;
13102;SDS011;52970;46.752;17.108;2023-02-28T16:16:46;11.63;;;8.98;;
13102;SDS011;52970;46.752;17.108;2023-02-28T16:19:11;11.20;;;9.65;;
13102;SDS011;52970;46.752;17.108;2023-02-28T16:21:37;10.77;;;8.68;;
13102;SDS011;52970;46.752;17.108;2023-02-28T16:24:02;10.93;;;8.63;;
13102;SDS011;52970;46.752;17.108;2023-02-28T16:26:27;12.20;;;10.18;;
13102;SDS011;52970;46.752;17.108;2023-02-28T16:28:53;11.40;;;9.63;;
13102;SDS011;52970;46.752;17.108;2023-02-28T16:31:18;10.93;;;9.80;;
13102;SDS011;52970;46.752;17.108;2023-02-28T16:33:44;11.48;;;9.20;;
13102;SDS011;52970;46.752;17.108;2023-02-28T16:36:21;10.65;;;8.88;;
13102;SDS011;52970;46.752;17.108;2023-02-28T16:38:46;11.77;;;9.68;;
13102;SDS011;52970;46.752;17.108;2023-02-28T16:41:12;10.55;;;9.00;;